Lock Haven, PA (17745)

6:46 AM EST on February 11, 2016 (GMT -0500)
297 McElhattan Drive | | Change Station
CLOSE
Current Station
Personal Weather Station
Location: McElhattan, PA
Elevation: 568 ft
Nearby Weather Stations

Elev 568 ft 41.16 °N, 77.36 °W | Updated 15 minutes ago

Overcast
Overcast
15.8 °F
Feels Like 16 °F
N
1.0
Wind Variable Wind from NW
Gusts 13.0 mph

Today
High -- | Low -- °F
--% Chance of Precip.
Yesterday
High -- | Low -- °F
Precip. -- in
Pressure 29.91 in
Visibility 10.0 miles
Clouds Mostly Cloudy 3800 ft
Overcast 6000 ft
Windchill 16 °F
Dew Point 7 °F
Humidity 68%
Rainfall 0.00 in
Snow Depth Not available.
7:10 AM 5:38 PM
Waxing Crescent, 11% visible
METAR KIPT 111054Z AUTO 28008KT 10SM BKN038 OVC060 M08/M13 A2989 RMK AO2 SNB01E14 SLP129 P0000 T10831133 TSNO $
Pressure 29.91 in
Visibility 10.0 miles
Clouds Mostly Cloudy 3800 ft
Overcast 6000 ft
Windchill 16 °F
Dew Point 7 °F
Humidity 68%
Rainfall 0.00 in
Snow Depth Not available.
7:10 AM 5:38 PM
Waxing Crescent, 11% visible
METAR KIPT 111054Z AUTO 28008KT 10SM BKN038 OVC060 M08/M13 A2989 RMK AO2 SNB01E14 SLP129 P0000 T10831133 TSNO $

10-Day Weather Forecast

Almanac

Astronomy

Feb. 11, 2016 Rise Set
Actual Time
Civil Twilight
Nautical Twilight
Astronomical Twilight
Moon
Length of Visible Light
Length of Day
Tomorrow will be .
, % of the Moon is Illuminated

Today's Extremes

State Highs State Lows

Community

WunderPhotos

Upload Photos

1,892,030 photos uploaded!

WunderBlog® & News

Nearby

Air Quality

  Air Quality AQ Index Pollutant
Not available.

Snow Depth

Station Depth Elevation

Earthquake Activity

City Distance Mag. Time & Date
Minimum magnitude displayed is 2.5.

Coastal Water Temperatures

Place Temperature

Stations

Nearby Weather Stations

Station Location Temp. Windchill Dew Point Humidity Wind Precip. Elev Updated Type
                   

Watches & Warnings

There are currently no watches in effect.